Time;durP1;ratioP1;P1;durP2;ratioP2;P2;SDS_P1;SDS_P2;PMS_P1;PMS_P2;Temp;Humidity;BMP_temperature;BMP_pressure;BME280_temperature;BME280_humidity;BME280_pressure;Samples;Min_cycle;Max_cycle;Signal;HPM_P1;HPM_P2
2024/04/01 00:01:02;;;;;;;5.65;2.13;;;;;;;;;;5070440;28;20032;-88
2024/04/01 00:03:27;;;;;;;4.70;2.35;;;;;;;;;;5070315;28;20070;-87
2024/04/01 00:05:54;;;;;;;5.35;2.50;;;;;;;;;;5072768;28;20028;-87
2024/04/01 00:08:21;;;;;;;6.47;2.60;;;;;;;;;;5068271;28;20419;-87
2024/04/01 00:10:47;;;;;;;5.82;2.42;;;;;;;;;;5071465;28;20049;-86
2024/04/01 00:13:13;;;;;;;4.60;2.10;;;;;;;;;;5069549;28;20139;-87
2024/04/01 00:15:39;;;;;;;6.40;2.25;;;;;;;;;;5066140;28;20063;-86
2024/04/01 00:18:05;;;;;;;4.75;2.35;;;;;;;;;;5060797;28;20062;-88
2024/04/01 00:20:30;;;;;;;4.82;2.60;;;;;;;;;;5065235;28;20021;-87
2024/04/01 00:22:56;;;;;;;4.72;2.42;;;;;;;;;;5062123;28;20031;-86
2024/04/01 00:25:27;;;;;;;4.30;2.50;;;;;;;;;;5071756;28;20028;-83
2024/04/01 00:27:53;;;;;;;4.60;2.60;;;;;;;;;;5062692;28;20400;-83
2024/04/01 00:30:19;;;;;;;7.28;2.42;;;;;;;;;;5069610;28;20020;-83
2024/04/01 00:32:45;;;;;;;5.30;2.10;;;;;;;;;;5071600;28;20029;-83
2024/04/01 00:35:11;;;;;;;9.77;2.20;;;;;;;;;;5071884;28;20020;-83
2024/04/01 00:37:37;;;;;;;6.65;2.70;;;;;;;;;;5067015;28;20031;-84
2024/04/01 00:40:13;;;;;;;5.70;2.08;;;;;;;;;;5071312;28;20082;-83
2024/04/01 00:42:38;;;;;;;6.55;2.13;;;;;;;;;;5070982;28;20035;-83
2024/04/01 00:45:04;;;;;;;4.28;2.00;;;;;;;;;;5082003;28;20107;-83
2024/04/01 00:47:33;;;;;;;3.03;1.83;;;;;;;;;;5071063;28;20490;-83
2024/04/01 00:50:01;;;;;;;4.55;2.20;;;;;;;;;;5072068;28;20030;-83
2024/04/01 00:52:29;;;;;;;3.58;1.95;;;;;;;;;;5067745;28;20028;-83
2024/04/01 00:54:57;;;;;;;7.07;2.60;;;;;;;;;;5072741;28;20414;-83
2024/04/01 00:57:26;;;;;;;6.30;2.10;;;;;;;;;;5074325;28;20048;-83
2024/04/01 00:59:53;;;;;;;3.70;2.38;;;;;;;;;;5074311;28;20021;-83
2024/04/01 01:02:28;;;;;;;4.30;2.03;;;;;;;;;;5074846;28;20035;-83
2024/04/01 01:04:55;;;;;;;4.18;1.90;;;;;;;;;;5074830;28;20032;-83
2024/04/01 01:07:23;;;;;;;4.50;1.80;;;;;;;;;;5076107;28;20438;-83
2024/04/01 01:09:49;;;;;;;3.72;1.73;;;;;;;;;;5074946;28;20037;-83
2024/04/01 01:12:15;;;;;;;3.63;1.75;;;;;;;;;;5071959;28;20365;-83
2024/04/01 01:14:41;;;;;;;4.07;1.90;;;;;;;;;;5070384;28;20035;-83
2024/04/01 01:17:06;;;;;;;7.50;1.80;;;;;;;;;;5074912;28;20035;-83
2024/04/01 01:19:32;;;;;;;5.60;1.88;;;;;;;;;;5075538;28;20046;-83
2024/04/01 01:22:04;;;;;;;4.50;2.20;;;;;;;;;;5074932;28;20115;-83
2024/04/01 01:24:32;;;;;;;;;;;;;;;;;;5072107;28;20028;-83
2024/04/01 01:26:58;;;;;;;6.80;1.80;;;;;;;;;;5069317;28;19909;-83
2024/04/01 01:29:24;;;;;;;4.07;1.80;;;;;;;;;;5075258;28;20024;-83
2024/04/01 01:31:50;;;;;;;4.28;1.95;;;;;;;;;;5072327;28;20032;-86
2024/04/01 01:34:16;;;;;;;3.45;2.25;;;;;;;;;;5071621;28;20033;-82
2024/04/01 01:36:41;;;;;;;6.18;2.15;;;;;;;;;;5070936;28;20472;-84
2024/04/01 01:39:12;;;;;;;4.63;1.90;;;;;;;;;;5070325;28;20056;-82
2024/04/01 01:41:38;;;;;;;3.83;1.80;;;;;;;;;;5071171;28;20171;-83
2024/04/01 01:44:03;;;;;;;3.80;1.60;;;;;;;;;;5068040;28;20547;-83
2024/04/01 01:46:29;;;;;;;3.28;1.73;;;;;;;;;;5067952;28;20427;-81
2024/04/01 01:48:54;;;;;;;2.70;1.63;;;;;;;;;;5070680;28;20020;-82
2024/04/01 01:51:20;;;;;;;4.25;1.70;;;;;;;;;;5070846;28;20033;-82
2024/04/01 01:53:46;;;;;;;2.70;1.67;;;;;;;;;;5066907;28;20480;-83
2024/04/01 01:56:11;;;;;;;3.17;1.60;;;;;;;;;;5068395;28;20025;-83
2024/04/01 01:58:39;;;;;;;2.30;1.60;;;;;;;;;;5070072;28;20430;-82
2024/04/01 02:01:08;;;;;;;3.58;1.70;;;;;;;;;;5072757;28;20032;-83
2024/04/01 02:03:33;;;;;;;3.53;1.80;;;;;;;;;;5073587;28;20074;-83
2024/04/01 02:06:02;;;;;;;2.80;1.50;;;;;;;;;;5072847;28;20033;-83
2024/04/01 02:08:30;;;;;;;3.50;1.85;;;;;;;;;;5072508;28;20033;-83
2024/04/01 02:10:58;;;;;;;3.45;1.60;;;;;;;;;;5069767;28;20025;-88
2024/04/01 02:13:24;;;;;;;2.90;1.60;;;;;;;;;;5065519;28;20024;-87
2024/04/01 02:15:49;;;;;;;3.60;1.90;;;;;;;;;;5071549;28;20546;-87
2024/04/01 02:18:15;;;;;;;2.40;1.55;;;;;;;;;;5070906;28;20020;-87
2024/04/01 02:20:43;;;;;;;3.95;1.50;;;;;;;;;;5069751;28;20032;-85
2024/04/01 02:23:09;;;;;;;3.35;1.40;;;;;;;;;;5085320;28;20395;-87
2024/04/01 02:25:34;;;;;;;3.13;1.65;;;;;;;;;;5069269;28;20024;-86
2024/04/01 02:28:00;;;;;;;4.35;2.00;;;;;;;;;;5067938;28;20097;-87
2024/04/01 02:30:28;;;;;;;3.33;1.58;;;;;;;;;;5068944;28;20028;-88
2024/04/01 02:32:53;;;;;;;3.55;1.60;;;;;;;;;;5069975;28;20025;-88
2024/04/01 02:35:19;;;;;;;3.85;1.80;;;;;;;;;;5070450;28;20047;-85
2024/04/01 02:37:44;;;;;;;3.47;1.52;;;;;;;;;;5069073;28;20400;-87
2024/04/01 02:40:10;;;;;;;2.92;1.58;;;;;;;;;;5070183;28;20520;-87
2024/04/01 02:42:36;;;;;;;3.42;1.90;;;;;;;;;;5069238;28;20028;-86
2024/04/01 02:45:03;;;;;;;3.83;1.65;;;;;;;;;;5070635;28;20480;-87
2024/04/01 02:47:29;;;;;;;3.45;1.65;;;;;;;;;;5068650;28;20035;-86
2024/04/01 02:49:54;;;;;;;3.17;1.70;;;;;;;;;;5060236;28;20033;-87
2024/04/01 02:52:22;;;;;;;4.32;1.65;;;;;;;;;;5063405;28;20049;-87
2024/04/01 02:54:48;;;;;;;3.97;1.58;;;;;;;;;;5067445;28;20032;-81
2024/04/01 02:57:13;;;;;;;3.35;1.70;;;;;;;;;;5068749;28;20475;-80
2024/04/01 02:59:39;;;;;;;4.65;1.55;;;;;;;;;;5061768;28;20075;-81
2024/04/01 03:02:04;;;;;;;3.65;2.10;;;;;;;;;;5066107;28;20115;-84
2024/04/01 03:04:30;;;;;;;2.92;1.50;;;;;;;;;;5065829;28;20016;-86
2024/04/01 03:06:59;;;;;;;2.53;1.48;;;;;;;;;;5068105;28;20028;-83
2024/04/01 03:09:24;;;;;;;3.17;1.65;;;;;;;;;;5089151;28;20388;-82
2024/04/01 03:11:50;;;;;;;2.55;1.40;;;;;;;;;;5071293;28;20039;-82
2024/04/01 03:14:15;;;;;;;2.42;1.25;;;;;;;;;;5072790;28;20036;-82
2024/04/01 03:16:42;;;;;;;3.53;1.50;;;;;;;;;;5072744;28;20100;-82
2024/04/01 03:19:12;;;;;;;2.65;1.33;;;;;;;;;;5074173;28;20115;-82
2024/04/01 03:21:37;;;;;;;4.50;1.75;;;;;;;;;;5072275;28;20036;-83
2024/04/01 03:24:04;;;;;;;2.58;1.40;;;;;;;;;;5070596;28;20036;-82
2024/04/01 03:26:30;;;;;;;2.60;1.40;;;;;;;;;;5073070;28;20078;-82
2024/04/01 03:28:55;;;;;;;3.67;1.50;;;;;;;;;;5085411;28;20036;-82
2024/04/01 03:31:23;;;;;;;2.30;1.50;;;;;;;;;;5072651;28;20035;-83
2024/04/01 03:33:48;;;;;;;2.47;1.30;;;;;;;;;;5074812;28;20434;-82
2024/04/01 03:36:15;;;;;;;3.55;1.50;;;;;;;;;;5072382;28;20024;-83
2024/04/01 03:38:46;;;;;;;2.42;1.30;;;;;;;;;;5069227;28;20484;-83
2024/04/01 03:41:11;;;;;;;4.75;1.70;;;;;;;;;;5071486;28;20417;-82
2024/04/01 03:43:37;;;;;;;2.53;1.30;;;;;;;;;;5073571;28;20111;-83
2024/04/01 03:46:05;;;;;;;2.97;1.52;;;;;;;;;;5069020;28;20032;-83
2024/04/01 03:48:34;;;;;;;2.42;1.45;;;;;;;;;;5084469;28;20028;-83
2024/04/01 03:51:01;;;;;;;2.15;1.40;;;;;;;;;;5071833;28;20053;-82
2024/04/01 03:53:26;;;;;;;2.50;1.40;;;;;;;;;;5066427;28;20117;-83
2024/04/01 03:55:52;;;;;;;2.35;1.40;;;;;;;;;;5072080;28;20052;-82
2024/04/01 03:58:17;;;;;;;3.67;1.60;;;;;;;;;;5071859;28;20032;-82
2024/04/01 04:00:43;;;;;;;4.32;1.40;;;;;;;;;;5065642;28;20111;-82
2024/04/01 04:03:09;;;;;;;3.90;1.60;;;;;;;;;;5065137;28;20161;-82
2024/04/01 04:05:38;;;;;;;2.38;1.38;;;;;;;;;;5071822;28;20063;-83
2024/04/01 04:08:04;;;;;;;3.47;1.67;;;;;;;;;;5068980;28;20376;-83
2024/04/01 04:10:29;;;;;;;4.32;1.50;;;;;;;;;;5071832;28;20024;-83
2024/04/01 04:12:55;;;;;;;3.22;1.40;;;;;;;;;;5071729;28;20111;-83
2024/04/01 04:15:21;;;;;;;2.95;1.40;;;;;;;;;;5071838;28;20024;-82
2024/04/01 04:17:47;;;;;;;3.88;1.60;;;;;;;;;;5071578;28;20028;-82
2024/04/01 04:20:12;;;;;;;3.20;1.35;;;;;;;;;;5071769;28;20555;-83
2024/04/01 04:22:38;;;;;;;6.60;1.60;;;;;;;;;;5056269;28;20040;-82
2024/04/01 04:29:01;;;;;;;3.65;1.40;;;;;;;;;;5071757;28;20091;-82
2024/04/01 04:31:27;;;;;;;2.70;1.60;;;;;;;;;;5069835;28;20032;-82
2024/04/01 04:33:56;;;;;;;3.97;1.50;;;;;;;;;;5071797;28;20036;-83
2024/04/01 04:36:22;;;;;;;2.55;1.40;;;;;;;;;;5066554;28;20024;-83
2024/04/01 04:38:48;;;;;;;3.65;1.58;;;;;;;;;;5071325;28;20028;-82
2024/04/01 04:41:16;;;;;;;3.22;1.80;;;;;;;;;;5072060;28;20028;-83
2024/04/01 04:43:46;;;;;;;2.80;1.70;;;;;;;;;;5071752;28;20032;-82
2024/04/01 04:46:15;;;;;;;3.22;1.60;;;;;;;;;;5069639;28;20040;-82
2024/04/01 04:48:45;;;;;;;2.97;1.60;;;;;;;;;;5072371;28;20107;-82
2024/04/01 04:51:14;;;;;;;2.53;1.42;;;;;;;;;;5062927;28;20476;-83
2024/04/01 04:53:42;;;;;;;3.40;1.67;;;;;;;;;;5063031;28;20020;-82
2024/04/01 04:56:08;;;;;;;3.30;1.77;;;;;;;;;;5071431;28;20036;-83
2024/04/01 04:58:33;;;;;;;2.97;1.80;;;;;;;;;;5071691;28;20021;-83
2024/04/01 05:01:05;;;;;;;4.32;1.70;;;;;;;;;;5071867;28;20024;-83
2024/04/01 05:03:37;;;;;;;2.72;1.45;;;;;;;;;;5065152;28;20130;-83
2024/04/01 05:06:02;;;;;;;2.63;1.70;;;;;;;;;;5071136;28;20091;-83
2024/04/01 05:08:28;;;;;;;3.28;1.73;;;;;;;;;;5065099;28;20044;-83
2024/04/01 05:10:55;;;;;;;3.45;1.70;;;;;;;;;;5070908;28;20047;-82
2024/04/01 05:13:21;;;;;;;3.50;1.70;;;;;;;;;;5070756;28;20116;-83
2024/04/01 05:15:46;;;;;;;2.92;1.88;;;;;;;;;;5067851;28;20111;-83
2024/04/01 05:18:12;;;;;;;3.75;1.67;;;;;;;;;;5066354;28;20020;-81
2024/04/01 05:20:37;;;;;;;2.00;1.58;;;;;;;;;;5064221;28;20086;-80
2024/04/01 05:23:04;;;;;;;3.50;1.77;;;;;;;;;;5064506;28;20032;-81
2024/04/01 05:25:30;;;;;;;3.63;1.70;;;;;;;;;;5066485;28;20446;-82
2024/04/01 05:27:58;;;;;;;5.07;1.80;;;;;;;;;;5065689;28;20024;-87
2024/04/01 05:30:24;;;;;;;3.97;1.75;;;;;;;;;;5066101;28;20021;-87
2024/04/01 05:32:52;;;;;;;4.00;1.90;;;;;;;;;;5066632;28;20464;-88
2024/04/01 05:35:19;;;;;;;3.78;1.67;;;;;;;;;;5064962;28;20400;-86
2024/04/01 05:37:47;;;;;;;6.50;2.22;;;;;;;;;;5065908;28;20025;-87
2024/04/01 05:40:12;;;;;;;2.83;1.70;;;;;;;;;;5067322;28;20383;-87
2024/04/01 05:42:38;;;;;;;3.67;1.70;;;;;;;;;;5066939;28;20036;-85
2024/04/01 05:45:04;;;;;;;3.20;1.70;;;;;;;;;;5068391;28;20016;-87
2024/04/01 05:47:30;;;;;;;2.72;1.60;;;;;;;;;;5071001;28;20046;-86
2024/04/01 05:50:01;;;;;;;4.40;1.80;;;;;;;;;;5070614;28;20104;-87
2024/04/01 05:52:30;;;;;;;3.22;1.80;;;;;;;;;;5070929;28;20503;-87
2024/04/01 05:54:55;;;;;;;3.03;1.90;;;;;;;;;;5069738;28;20377;-88
2024/04/01 05:57:20;;;;;;;2.75;1.58;;;;;;;;;;5069215;28;20119;-87
2024/04/01 05:59:48;;;;;;;2.63;1.70;;;;;;;;;;5070149;28;20020;-86
2024/04/01 06:02:22;;;;;;;3.72;1.70;;;;;;;;;;5067257;28;20020;-87
2024/04/01 06:04:51;;;;;;;4.57;2.00;;;;;;;;;;5069580;28;20024;-87
2024/04/01 06:07:16;;;;;;;2.70;1.80;;;;;;;;;;5063899;28;20071;-87
2024/04/01 06:09:42;;;;;;;3.55;1.80;;;;;;;;;;5071498;28;20460;-87
2024/04/01 06:12:07;;;;;;;4.30;2.00;;;;;;;;;;5067476;28;20491;-87
2024/04/01 06:14:33;;;;;;;3.45;1.90;;;;;;;;;;5065473;28;20021;-87
2024/04/01 06:16:58;;;;;;;3.03;1.80;;;;;;;;;;5068746;28;20029;-87
2024/04/01 06:19:26;;;;;;;2.95;1.60;;;;;;;;;;5068603;28;20043;-86
2024/04/01 06:21:55;;;;;;;2.78;1.80;;;;;;;;;;5069338;28;20101;-86
2024/04/01 06:24:26;;;;;;;3.33;1.70;;;;;;;;;;5067948;28;20112;-87
2024/04/01 06:26:52;;;;;;;4.22;1.90;;;;;;;;;;5069821;28;20040;-86
2024/04/01 06:29:17;;;;;;;3.10;1.90;;;;;;;;;;5068637;28;20021;-87
2024/04/01 06:31:43;;;;;;;2.90;1.73;;;;;;;;;;5070534;28;20036;-87
2024/04/01 06:34:08;;;;;;;4.85;2.22;;;;;;;;;;5067088;28;20028;-88
2024/04/01 06:36:34;;;;;;;3.40;1.92;;;;;;;;;;5072260;28;20390;-87
2024/04/01 06:39:02;;;;;;;2.50;1.70;;;;;;;;;;5066424;28;20434;-83
2024/04/01 06:41:28;;;;;;;3.55;1.67;;;;;;;;;;5063179;28;20132;-83
2024/04/01 06:43:56;;;;;;;3.00;1.88;;;;;;;;;;5069841;28;20123;-83
2024/04/01 06:46:22;;;;;;;2.95;1.77;;;;;;;;;;5067431;28;20056;-83
2024/04/01 06:48:50;;;;;;;2.63;1.60;;;;;;;;;;5070044;28;20048;-87
2024/04/01 06:51:15;;;;;;;3.33;1.73;;;;;;;;;;5067747;28;20024;-87
2024/04/01 06:53:41;;;;;;;3.75;1.60;;;;;;;;;;5067612;28;20093;-88
2024/04/01 06:56:07;;;;;;;2.55;1.70;;;;;;;;;;5065100;28;20044;-87
2024/04/01 06:58:32;;;;;;;4.00;1.70;;;;;;;;;;5071286;28;20024;-88
2024/04/01 07:00:58;;;;;;;3.92;1.60;;;;;;;;;;5068305;28;20029;-87
2024/04/01 07:03:23;;;;;;;2.88;1.63;;;;;;;;;;5067003;28;20029;-86
2024/04/01 07:05:52;;;;;;;3.78;1.80;;;;;;;;;;5072510;28;20103;-86
2024/04/01 07:08:17;;;;;;;3.47;1.80;;;;;;;;;;5068167;28;20066;-87
2024/04/01 07:10:46;;;;;;;3.75;1.80;;;;;;;;;;5070162;28;20060;-87
2024/04/01 07:13:12;;;;;;;3.17;1.90;;;;;;;;;;5062571;28;20060;-87
2024/04/01 07:15:41;;;;;;;3.58;2.00;;;;;;;;;;5068023;28;20044;-87
2024/04/01 07:18:09;;;;;;;3.25;1.88;;;;;;;;;;5065609;28;20111;-87
2024/04/01 07:20:35;;;;;;;4.15;2.25;;;;;;;;;;5063606;28;20033;-87
2024/04/01 07:23:00;;;;;;;4.55;2.25;;;;;;;;;;5065611;28;20036;-87
2024/04/01 07:25:26;;;;;;;3.65;2.25;;;;;;;;;;5069581;28;20058;-87
2024/04/01 07:27:52;;;;;;;3.70;2.20;;;;;;;;;;5069756;28;20776;-87
2024/04/01 07:30:17;;;;;;;4.90;2.35;;;;;;;;;;5068586;28;20100;-87
2024/04/01 07:32:43;;;;;;;3.92;2.60;;;;;;;;;;5065550;28;20048;-87
2024/04/01 07:35:13;;;;;;;4.00;2.45;;;;;;;;;;5068287;28;20488;-86
2024/04/01 07:37:41;;;;;;;4.53;2.78;;;;;;;;;;5067547;28;20478;-85
2024/04/01 07:40:07;;;;;;;4.60;2.88;;;;;;;;;;5062662;28;20167;-85
2024/04/01 07:42:33;;;;;;;3.60;2.67;;;;;;;;;;5058382;28;20102;-86
2024/04/01 07:44:58;;;;;;;4.25;2.78;;;;;;;;;;5067603;28;20415;-87
2024/04/01 07:47:24;;;;;;;5.15;2.83;;;;;;;;;;5069621;28;20061;-86
2024/04/01 07:49:49;;;;;;;4.95;3.05;;;;;;;;;;5069227;28;20062;-87
2024/04/01 07:52:15;;;;;;;4.45;3.10;;;;;;;;;;5059303;28;20377;-87
2024/04/01 07:54:40;;;;;;;4.45;3.20;;;;;;;;;;5069912;28;20498;-81
2024/04/01 07:57:06;;;;;;;8.20;3.53;;;;;;;;;;5067980;28;20492;-80
2024/04/01 07:59:33;;;;;;;5.28;3.67;;;;;;;;;;5065526;28;20025;-86
2024/04/01 08:02:03;;;;;;;4.03;2.95;;;;;;;;;;5067986;28;20075;-86
2024/04/01 08:04:29;;;;;;;5.03;3.22;;;;;;;;;;5067659;28;20024;-86
2024/04/01 08:06:55;;;;;;;5.70;3.88;;;;;;;;;;5067348;28;20028;-86
2024/04/01 08:09:21;;;;;;;5.10;3.22;;;;;;;;;;5069026;28;20407;-86
2024/04/01 08:11:50;;;;;;;5.38;3.55;;;;;;;;;;5069484;28;20028;-87
2024/04/01 08:14:18;;;;;;;5.22;3.47;;;;;;;;;;5067939;28;20033;-86
2024/04/01 08:16:46;;;;;;;5.75;3.85;;;;;;;;;;5067516;28;20168;-86
2024/04/01 08:19:18;;;;;;;4.50;3.65;;;;;;;;;;5069319;28;20028;-87
2024/04/01 08:21:44;;;;;;;4.63;3.40;;;;;;;;;;5064763;28;20024;-86
2024/04/01 08:24:12;;;;;;;5.95;3.50;;;;;;;;;;5067378;28;20075;-86
2024/04/01 08:26:38;;;;;;;5.35;3.60;;;;;;;;;;5064827;28;20558;-86
2024/04/01 08:29:04;;;;;;;5.10;3.47;;;;;;;;;;5066078;28;20024;-86
2024/04/01 08:31:32;;;;;;;5.38;3.47;;;;;;;;;;5068549;28;20060;-88
2024/04/01 08:33:58;;;;;;;4.90;3.80;;;;;;;;;;5080109;28;20024;-87
2024/04/01 08:36:24;;;;;;;5.85;3.83;;;;;;;;;;5062363;28;20041;-88
2024/04/01 08:38:49;;;;;;;5.28;3.40;;;;;;;;;;5062017;28;20028;-87
2024/04/01 08:41:27;;;;;;;4.50;3.30;;;;;;;;;;5066305;28;20035;-88
2024/04/01 08:44:08;;;;;;;6.05;3.70;;;;;;;;;;5065418;28;20024;-88
2024/04/01 08:46:42;;;;;;;4.50;3.38;;;;;;;;;;5060746;28;20074;-86
2024/04/01 08:49:12;;;;;;;5.35;3.53;;;;;;;;;;5080305;28;20032;-87
2024/04/01 08:51:42;;;;;;;5.35;3.38;;;;;;;;;;5062778;28;20021;-87
2024/04/01 08:54:08;;;;;;;4.55;3.22;;;;;;;;;;5062936;28;20558;-88
2024/04/01 08:56:39;;;;;;;4.82;3.30;;;;;;;;;;5062529;28;20119;-86
2024/04/01 08:59:07;;;;;;;5.75;3.58;;;;;;;;;;5061606;28;20051;-81
2024/04/01 09:01:33;;;;;;;5.38;3.50;;;;;;;;;;5063304;28;20033;-83
2024/04/01 09:03:59;;;;;;;5.22;3.50;;;;;;;;;;5064766;28;20468;-81
2024/04/01 09:06:24;;;;;;;4.93;3.40;;;;;;;;;;5064030;28;20028;-82
2024/04/01 09:08:53;;;;;;;5.22;3.38;;;;;;;;;;5063252;28;20116;-81
2024/04/01 09:11:23;;;;;;;5.07;3.13;;;;;;;;;;5070437;28;20515;-82
2024/04/01 09:13:52;;;;;;;5.72;3.13;;;;;;;;;;5068243;28;20016;-82
2024/04/01 09:16:26;;;;;;;4.53;3.00;;;;;;;;;;5068697;28;20024;-81
2024/04/01 09:18:52;;;;;;;4.20;2.95;;;;;;;;;;5068183;28;20373;-82
2024/04/01 09:21:20;;;;;;;4.57;3.10;;;;;;;;;;5072444;28;20036;-82
2024/04/01 09:23:46;;;;;;;4.95;2.92;;;;;;;;;;5066178;28;20491;-81
2024/04/01 09:26:12;;;;;;;4.55;3.17;;;;;;;;;;5072730;28;20165;-82
2024/04/01 09:28:38;;;;;;;5.70;3.20;;;;;;;;;;5071893;28;20543;-82
2024/04/01 09:31:04;;;;;;;4.43;3.13;;;;;;;;;;5070240;28;20107;-81
2024/04/01 09:33:31;;;;;;;4.97;3.10;;;;;;;;;;5069205;28;20024;-82
2024/04/01 09:35:57;;;;;;;6.55;3.38;;;;;;;;;;5070657;28;20112;-81
2024/04/01 09:38:25;;;;;;;5.57;3.33;;;;;;;;;;5072991;28;20429;-81
2024/04/01 09:40:57;;;;;;;6.47;3.50;;;;;;;;;;5064413;28;20543;-82
2024/04/01 09:43:27;;;;;;;6.40;3.83;;;;;;;;;;5072178;28;20067;-82
2024/04/01 09:45:53;;;;;;;7.38;4.05;;;;;;;;;;5065845;28;20085;-81
2024/04/01 09:48:25;;;;;;;7.35;3.83;;;;;;;;;;5069608;28;20477;-83
2024/04/01 09:50:53;;;;;;;7.13;3.95;;;;;;;;;;5072288;28;20484;-81
2024/04/01 09:53:21;;;;;;;5.50;4.35;;;;;;;;;;5072587;28;20116;-81
2024/04/01 09:55:50;;;;;;;6.90;4.85;;;;;;;;;;5071672;28;20036;-82
2024/04/01 09:58:34;;;;;;;7.05;5.22;;;;;;;;;;5082048;28;20028;-82
2024/04/01 10:01:30;;;;;;;6.70;4.88;;;;;;;;;;5071563;28;20083;-82
2024/04/01 10:04:27;;;;;;;7.65;5.13;;;;;;;;;;5085857;28;20209;-82
2024/04/01 10:07:23;;;;;;;7.63;5.07;;;;;;;;;;5085616;28;20028;-82
2024/04/01 10:10:08;;;;;;;6.93;5.28;;;;;;;;;;5066675;28;20465;-86
2024/04/01 10:12:56;;;;;;;8.13;4.65;;;;;;;;;;5070395;28;20561;-86
2024/04/01 10:15:40;;;;;;;6.55;5.18;;;;;;;;;;5072386;28;20021;-86
2024/04/01 10:18:21;;;;;;;8.25;5.03;;;;;;;;;;5071610;28;20066;-85
2024/04/01 10:20:59;;;;;;;7.78;4.95;;;;;;;;;;5071131;28;20024;-86
2024/04/01 10:23:43;;;;;;;7.38;5.10;;;;;;;;;;5069096;28;20384;-87
2024/04/01 10:26:31;;;;;;;7.32;5.57;;;;;;;;;;5066967;28;20051;-85
2024/04/01 10:29:23;;;;;;;8.00;5.00;;;;;;;;;;5082933;28;20044;-86
2024/04/01 10:32:09;;;;;;;7.30;4.78;;;;;;;;;;5083899;28;20109;-82
2024/04/01 10:35:13;;;;;;;7.55;5.03;;;;;;;;;;5084853;28;20024;-83
2024/04/01 10:38:25;;;;;;;8.73;4.60;;;;;;;;;;5067207;28;20063;-83
2024/04/01 10:41:41;;;;;;;7.65;4.82;;;;;;;;;;5084883;28;20037;-83
2024/04/01 10:44:37;;;;;;;8.55;5.40;;;;;;;;;;5068459;28;20032;-82
2024/04/01 10:47:29;;;;;;;10.85;5.05;;;;;;;;;;5084270;28;20043;-82
2024/04/01 10:50:26;;;;;;;8.48;5.18;;;;;;;;;;5067908;28;20392;-83
2024/04/01 10:53:37;;;;;;;5.88;4.22;;;;;;;;;;5085275;28;20028;-82
2024/04/01 10:56:27;;;;;;;6.88;3.90;;;;;;;;;;5066215;28;20087;-83
2024/04/01 10:59:25;;;;;;;7.43;3.67;;;;;;;;;;5084497;28;20027;-82
2024/04/01 11:02:25;;;;;;;5.38;3.70;;;;;;;;;;5082402;28;20033;-83
2024/04/01 11:05:28;;;;;;;8.57;4.30;;;;;;;;;;5066920;28;20480;-82
2024/04/01 11:08:07;;;;;;;7.33;3.70;;;;;;;;;;5084901;28;20448;-80
2024/04/01 11:10:40;;;;;;;7.07;3.38;;;;;;;;;;5071290;28;20423;-81
2024/04/01 11:13:20;;;;;;;6.32;3.60;;;;;;;;;;5069463;28;20033;-80
2024/04/01 11:15:48;;;;;;;6.75;3.65;;;;;;;;;;5069317;28;20550;-80
2024/04/01 11:18:20;;;;;;;6.28;3.28;;;;;;;;;;5067556;28;20491;-82
2024/04/01 11:21:13;;;;;;;5.85;3.00;;;;;;;;;;5066290;28;20492;-79
2024/04/01 11:23:48;;;;;;;7.28;2.55;;;;;;;;;;5080828;28;20430;-80
2024/04/01 11:26:37;;;;;;;8.15;2.95;;;;;;;;;;5071403;28;20036;-80
2024/04/01 11:29:08;;;;;;;5.72;2.47;;;;;;;;;;5071045;28;20118;-80
2024/04/01 11:31:41;;;;;;;6.55;2.63;;;;;;;;;;5070836;28;20029;-79
2024/04/01 11:34:23;;;;;;;5.20;2.30;;;;;;;;;;5066543;28;20037;-80
2024/04/01 11:37:38;;;;;;;5.43;2.38;;;;;;;;;;5054765;28;20037;-80
2024/04/01 11:40:08;;;;;;;7.05;2.50;;;;;;;;;;5063357;28;20488;-84
2024/04/01 11:42:42;;;;;;;4.95;2.05;;;;;;;;;;5070601;28;20024;-85
2024/04/01 11:45:20;;;;;;;8.65;2.70;;;;;;;;;;5072051;28;20060;-85
2024/04/01 11:47:48;;;;;;;6.10;2.85;;;;;;;;;;5070784;28;20391;-85
2024/04/01 11:50:20;;;;;;;5.82;2.50;;;;;;;;;;5063866;28;20073;-84
2024/04/01 11:53:05;;;;;;;5.90;2.67;;;;;;;;;;5066924;28;20112;-84
2024/04/01 11:55:51;;;;;;;5.03;2.08;;;;;;;;;;5083988;28;20028;-84
2024/04/01 11:58:18;;;;;;;6.35;2.40;;;;;;;;;;5065783;28;20488;-84
2024/04/01 12:01:00;;;;;;;6.93;2.67;;;;;;;;;;5069912;28;20373;-84
2024/04/01 12:03:39;;;;;;;5.88;2.60;;;;;;;;;;5068070;28;20028;-84
2024/04/01 12:06:05;;;;;;;7.88;2.50;;;;;;;;;;5066683;28;20426;-84
2024/04/01 12:08:32;;;;;;;5.78;2.55;;;;;;;;;;5067481;28;20466;-84
2024/04/01 12:10:59;;;;;;;5.65;2.63;;;;;;;;;;5065583;28;20056;-85
2024/04/01 12:13:27;;;;;;;6.05;2.95;;;;;;;;;;5069150;28;20067;-85
2024/04/01 12:15:58;;;;;;;4.28;2.65;;;;;;;;;;5064927;28;20031;-84
2024/04/01 12:18:24;;;;;;;5.65;2.40;;;;;;;;;;5063369;28;20017;-84
2024/04/01 12:20:55;;;;;;;4.93;2.53;;;;;;;;;;5068982;28;20125;-85
2024/04/01 12:23:25;;;;;;;4.38;2.67;;;;;;;;;;5063433;28;20025;-85
2024/04/01 12:25:51;;;;;;;5.40;2.50;;;;;;;;;;5069634;28;20039;-84
2024/04/01 12:28:18;;;;;;;6.22;2.58;;;;;;;;;;5061759;28;20439;-85
2024/04/01 12:30:49;;;;;;;5.00;2.55;;;;;;;;;;5066573;28;20032;-84
2024/04/01 12:33:16;;;;;;;6.13;2.90;;;;;;;;;;5069102;28;20028;-85
2024/04/01 12:35:41;;;;;;;5.20;2.90;;;;;;;;;;5068504;28;20075;-85
2024/04/01 12:38:13;;;;;;;5.78;2.80;;;;;;;;;;5068396;28;20067;-84
2024/04/01 12:40:45;;;;;;;5.32;3.20;;;;;;;;;;5077563;28;20087;-85
2024/04/01 12:43:23;;;;;;;5.82;2.60;;;;;;;;;;5069336;28;20448;-85
2024/04/01 12:45:51;;;;;;;8.00;2.90;;;;;;;;;;5065121;28;20060;-84
2024/04/01 12:48:18;;;;;;;3.97;2.05;;;;;;;;;;5059016;28;20039;-85
2024/04/01 12:50:55;;;;;;;7.68;2.50;;;;;;;;;;5067381;28;20058;-84
2024/04/01 12:53:27;;;;;;;3.90;2.30;;;;;;;;;;5066149;28;20444;-85
2024/04/01 12:56:11;;;;;;;3.60;2.65;;;;;;;;;;5077774;28;20077;-84
2024/04/01 12:59:13;;;;;;;4.25;2.13;;;;;;;;;;5074840;28;20025;-85
2024/04/01 13:02:10;;;;;;;5.43;2.25;;;;;;;;;;5090894;28;20038;-83
2024/04/01 13:04:54;;;;;;;3.20;2.00;;;;;;;;;;5075448;28;20368;-83
2024/04/01 13:07:33;;;;;;;4.65;2.33;;;;;;;;;;5069654;28;20020;-83
2024/04/01 13:10:13;;;;;;;4.63;2.40;;;;;;;;;;5077294;28;20081;-83
2024/04/01 13:12:47;;;;;;;5.15;2.30;;;;;;;;;;5074464;28;20126;-83
2024/04/01 13:15:39;;;;;;;6.65;2.95;;;;;;;;;;5076536;28;20055;-83
2024/04/01 13:18:12;;;;;;;6.15;2.55;;;;;;;;;;5060527;28;20048;-83
2024/04/01 13:20:46;;;;;;;3.80;2.20;;;;;;;;;;5074863;28;20032;-83
2024/04/01 13:23:23;;;;;;;6.72;2.70;;;;;;;;;;5062704;28;20027;-83
2024/04/01 13:26:19;;;;;;;4.22;2.42;;;;;;;;;;5076295;28;20056;-84
2024/04/01 13:28:50;;;;;;;6.40;2.47;;;;;;;;;;5054907;28;20556;-81
2024/04/01 13:31:18;;;;;;;4.15;2.20;;;;;;;;;;5072120;28;20024;-81
2024/04/01 13:33:55;;;;;;;4.75;2.60;;;;;;;;;;5074263;28;20024;-80
2024/04/01 13:36:39;;;;;;;4.75;2.95;;;;;;;;;;5076824;28;20028;-82
2024/04/01 13:39:40;;;;;;;5.18;2.65;;;;;;;;;;5074859;28;20028;-81
2024/04/01 13:42:12;;;;;;;4.57;3.00;;;;;;;;;;5054443;28;20511;-81
2024/04/01 13:44:51;;;;;;;4.43;2.92;;;;;;;;;;5073742;28;20377;-81
2024/04/01 13:47:20;;;;;;;6.15;2.97;;;;;;;;;;5071675;28;20555;-81
2024/04/01 13:49:58;;;;;;;4.57;3.42;;;;;;;;;;5086269;28;20032;-80
2024/04/01 13:52:32;;;;;;;7.03;3.35;;;;;;;;;;5074547;28;20075;-81
2024/04/01 13:55:16;;;;;;;5.85;3.40;;;;;;;;;;5075987;28;20063;-81
2024/04/01 13:58:31;;;;;;;5.85;3.22;;;;;;;;;;5075637;28;20462;-81
2024/04/01 14:01:09;;;;;;;5.22;3.75;;;;;;;;;;5073828;28;20460;-80
2024/04/01 14:04:12;;;;;;;5.18;3.72;;;;;;;;;;5071439;28;20076;-82
2024/04/01 14:06:56;;;;;;;6.43;4.32;;;;;;;;;;5072845;28;20039;-83
2024/04/01 14:09:46;;;;;;;6.80;3.95;;;;;;;;;;5069684;28;20025;-82
2024/04/01 14:12:36;;;;;;;5.47;4.68;;;;;;;;;;5082750;28;20028;-84
2024/04/01 14:15:02;;;;;;;7.88;5.75;;;;;;;;;;5070057;28;20024;-84
2024/04/01 14:17:47;;;;;;;6.05;5.40;;;;;;;;;;5073069;28;20123;-83
2024/04/01 14:20:20;;;;;;;6.45;5.68;;;;;;;;;;5068478;28;20399;-84
2024/04/01 14:22:45;;;;;;;6.35;5.75;;;;;;;;;;5072204;28;20024;-84
2024/04/01 14:25:11;;;;;;;6.72;5.57;;;;;;;;;;5073073;28;20028;-84
2024/04/01 14:27:38;;;;;;;7.63;6.10;;;;;;;;;;5070738;28;20037;-84
2024/04/01 14:30:05;;;;;;;6.80;6.00;;;;;;;;;;5071626;28;20036;-83
2024/04/01 14:32:30;;;;;;;7.00;6.13;;;;;;;;;;5073836;28;20024;-80
2024/04/01 14:34:56;;;;;;;8.15;5.88;;;;;;;;;;5070994;28;20513;-80
2024/04/01 14:37:22;;;;;;;6.45;5.75;;;;;;;;;;5062046;28;20052;-80
2024/04/01 14:39:47;;;;;;;6.22;5.53;;;;;;;;;;5070940;28;20086;-81
2024/04/01 14:42:14;;;;;;;5.80;5.20;;;;;;;;;;5072670;28;20024;-80
2024/04/01 14:44:40;;;;;;;8.13;4.97;;;;;;;;;;5070315;28;20035;-82
2024/04/01 14:47:06;;;;;;;5.97;5.38;;;;;;;;;;5063905;28;20024;-82
2024/04/01 14:49:32;;;;;;;6.75;4.82;;;;;;;;;;5056017;28;20033;-82
2024/04/01 14:51:58;;;;;;;6.90;4.88;;;;;;;;;;5041438;28;20033;-82
2024/04/01 14:54:25;;;;;;;7.25;4.93;;;;;;;;;;5068174;28;20028;-81
2024/04/01 14:56:51;;;;;;;7.07;5.00;;;;;;;;;;5081424;28;20028;-82
2024/04/01 14:59:18;;;;;;;5.93;5.07;;;;;;;;;;5071408;28;20024;-81
2024/04/01 15:01:44;;;;;;;5.97;4.75;;;;;;;;;;5071724;28;20029;-81
2024/04/01 15:04:11;;;;;;;6.10;4.22;;;;;;;;;;5071922;28;20387;-81
2024/04/01 15:06:37;;;;;;;5.85;4.60;;;;;;;;;;5067198;28;20025;-81
2024/04/01 15:09:10;;;;;;;4.70;4.20;;;;;;;;;;5069698;28;20048;-81